Terminal Aerodrome Forecast
Issued by NWS

Home | Current Version | Previous Version | Text Only | Print | Product List | Glossary On
Versions: 1 2 3 4 5 6 7 8 9 10 11 12 13
857
FTPA31 PHFO 111120
TAFHMK
TAF
PHMK 111120Z 1112/1212 03005KT P6SM SKC
     FM112000 04013KT P6SM FEW030 SCT050
     FM120500 04007KT P6SM FEW030 SCT050
      AMD NOT SKED=

USA.gov is the U.S. government's official web portal to all federal, state and local government web resources and services.